sensor_id;sensor_type;location;lat;lon;timestamp;pressure;altitude;pressure_sealevel;temperature
70415;BMP280;57837;52.064;113.478;2023-02-15T00:00:46;94412.50;;;-16.21
70415;BMP280;57837;52.064;113.478;2023-02-15T00:03:51;94413.66;;;-16.01
70415;BMP280;57837;52.064;113.478;2023-02-15T00:06:55;94400.00;;;-15.72
70415;BMP280;57837;52.064;113.478;2023-02-15T00:09:58;94408.09;;;-15.49
70415;BMP280;57837;52.064;113.478;2023-02-15T00:13:03;94407.47;;;-15.30
70415;BMP280;57837;52.064;113.478;2023-02-15T00:16:08;94412.88;;;-15.38
70415;BMP280;57837;52.064;113.478;2023-02-15T00:19:15;94409.63;;;-15.43
70415;BMP280;57837;52.064;113.478;2023-02-15T00:22:19;94407.63;;;-15.46
70415;BMP280;57837;52.064;113.478;2023-02-15T00:25:23;94413.88;;;-15.71
70415;BMP280;57837;52.064;113.478;2023-02-15T00:28:26;94411.19;;;-16.01
70415;BMP280;57837;52.064;113.478;2023-02-15T00:31:31;94413.66;;;-16.01
70415;BMP280;57837;52.064;113.478;2023-02-15T00:34:36;94417.59;;;-15.73
70415;BMP280;57837;52.064;113.478;2023-02-15T00:37:40;94428.00;;;-15.71
70415;BMP280;57837;52.064;113.478;2023-02-15T00:40:44;94431.75;;;-16.01
70415;BMP280;57837;52.064;113.478;2023-02-15T00:43:48;94432.13;;;-16.36
70415;BMP280;57837;52.064;113.478;2023-02-15T00:46:50;94424.44;;;-16.40
70415;BMP280;57837;52.064;113.478;2023-02-15T00:49:55;94422.16;;;-16.19
70415;BMP280;57837;52.064;113.478;2023-02-15T00:52:58;94427.63;;;-15.90
70415;BMP280;57837;52.064;113.478;2023-02-15T00:56:01;94425.81;;;-15.68
70415;BMP280;57837;52.064;113.478;2023-02-15T00:59:04;94426.28;;;-15.34
70415;BMP280;57837;52.064;113.478;2023-02-15T01:02:08;94425.41;;;-15.17
70415;BMP280;57837;52.064;113.478;2023-02-15T01:05:12;94419.03;;;-14.98
70415;BMP280;57837;52.064;113.478;2023-02-15T01:08:17;94422.69;;;-14.38
70415;BMP280;57837;52.064;113.478;2023-02-15T01:11:22;94427.50;;;-13.55
70415;BMP280;57837;52.064;113.478;2023-02-15T01:14:25;94418.25;;;-13.34
70415;BMP280;57837;52.064;113.478;2023-02-15T01:17:28;94427.16;;;-13.18
70415;BMP280;57837;52.064;113.478;2023-02-15T01:20:36;94423.16;;;-13.09
70415;BMP280;57837;52.064;113.478;2023-02-15T01:23:41;94424.56;;;-12.87
70415;BMP280;57837;52.064;113.478;2023-02-15T01:26:46;94419.41;;;-12.47
70415;BMP280;57837;52.064;113.478;2023-02-15T01:29:50;94424.59;;;-12.33
70415;BMP280;57837;52.064;113.478;2023-02-15T01:32:56;94420.03;;;-12.26
70415;BMP280;57837;52.064;113.478;2023-02-15T01:36:00;94418.34;;;-11.67
70415;BMP280;57837;52.064;113.478;2023-02-15T01:39:06;94422.00;;;-11.07
70415;BMP280;57837;52.064;113.478;2023-02-15T01:42:11;94424.59;;;-11.17
70415;BMP280;57837;52.064;113.478;2023-02-15T01:45:24;94420.25;;;-11.30
70415;BMP280;57837;52.064;113.478;2023-02-15T01:48:28;94419.66;;;-10.79
70415;BMP280;57837;52.064;113.478;2023-02-15T01:51:34;94417.50;;;-10.29
70415;BMP280;57837;52.064;113.478;2023-02-15T01:54:41;94413.19;;;-10.24
70415;BMP280;57837;52.064;113.478;2023-02-15T01:57:46;94406.31;;;-10.51
70415;BMP280;57837;52.064;113.478;2023-02-15T02:00:49;94404.69;;;-10.42
70415;BMP280;57837;52.064;113.478;2023-02-15T02:07:08;94407.84;;;-10.17
70415;BMP280;57837;52.064;113.478;2023-02-15T02:10:15;94394.69;;;-10.09
70415;BMP280;57837;52.064;113.478;2023-02-15T02:13:19;94392.28;;;-10.14
70415;BMP280;57837;52.064;113.478;2023-02-15T02:16:46;94395.78;;;-9.55
70415;BMP280;57837;52.064;113.478;2023-02-15T02:23:28;94386.56;;;-8.32
70415;BMP280;57837;52.064;113.478;2023-02-15T02:30:16;94378.81;;;-8.22
70415;BMP280;57837;52.064;113.478;2023-02-15T02:33:44;94386.44;;;-7.65
70415;BMP280;57837;52.064;113.478;2023-02-15T02:37:03;94378.31;;;-7.14
70415;BMP280;57837;52.064;113.478;2023-02-15T02:44:13;94375.38;;;-6.64
70415;BMP280;57837;52.064;113.478;2023-02-15T02:50:31;94371.94;;;-6.42
70415;BMP280;57837;52.064;113.478;2023-02-15T02:53:35;94365.97;;;-6.29
70415;BMP280;57837;52.064;113.478;2023-02-15T02:56:43;94356.56;;;-6.58
70415;BMP280;57837;52.064;113.478;2023-02-15T02:59:52;94350.91;;;-7.33
70415;BMP280;57837;52.064;113.478;2023-02-15T03:03:27;94350.47;;;-7.44
70415;BMP280;57837;52.064;113.478;2023-02-15T03:06:42;94342.81;;;-7.13
70415;BMP280;57837;52.064;113.478;2023-02-15T03:09:53;94348.19;;;-6.24
70415;BMP280;57837;52.064;113.478;2023-02-15T03:12:57;94341.75;;;-6.04
70415;BMP280;57837;52.064;113.478;2023-02-15T03:16:02;94337.91;;;-6.02
70415;BMP280;57837;52.064;113.478;2023-02-15T03:19:37;94329.22;;;-5.54
70415;BMP280;57837;52.064;113.478;2023-02-15T03:26:06;94318.19;;;-4.87
70415;BMP280;57837;52.064;113.478;2023-02-15T03:29:12;94313.50;;;-5.09
70415;BMP280;57837;52.064;113.478;2023-02-15T03:32:17;94315.41;;;-6.07
70415;BMP280;57837;52.064;113.478;2023-02-15T03:35:23;94315.78;;;-6.34
70415;BMP280;57837;52.064;113.478;2023-02-15T03:38:43;94315.78;;;-6.34
70415;BMP280;57837;52.064;113.478;2023-02-15T03:42:10;94309.63;;;-6.63
70415;BMP280;57837;52.064;113.478;2023-02-15T03:45:18;94310.34;;;-6.54
70415;BMP280;57837;52.064;113.478;2023-02-15T03:48:32;94308.16;;;-6.64
70415;BMP280;57837;52.064;113.478;2023-02-15T03:51:39;94303.06;;;-6.38
70415;BMP280;57837;52.064;113.478;2023-02-15T03:54:43;94290.09;;;-6.10
70415;BMP280;57837;52.064;113.478;2023-02-15T03:57:50;94291.19;;;-5.70
70415;BMP280;57837;52.064;113.478;2023-02-15T04:01:25;94280.50;;;-5.46
70415;BMP280;57837;52.064;113.478;2023-02-15T04:04:48;94280.69;;;-5.30
70415;BMP280;57837;52.064;113.478;2023-02-15T04:07:51;94266.09;;;-5.58
70415;BMP280;57837;52.064;113.478;2023-02-15T04:10:55;94264.72;;;-5.55
70415;BMP280;57837;52.064;113.478;2023-02-15T04:14:00;94266.22;;;-5.54
70415;BMP280;57837;52.064;113.478;2023-02-15T04:17:23;94262.63;;;-5.32
70415;BMP280;57837;52.064;113.478;2023-02-15T04:20:26;94251.53;;;-5.19
70415;BMP280;57837;52.064;113.478;2023-02-15T04:23:48;94250.19;;;-5.37
70415;BMP280;57837;52.064;113.478;2023-02-15T04:27:09;94251.00;;;-5.87
70415;BMP280;57837;52.064;113.478;2023-02-15T04:30:13;94238.41;;;-6.16
70415;BMP280;57837;52.064;113.478;2023-02-15T04:33:17;94237.94;;;-5.89
70415;BMP280;57837;52.064;113.478;2023-02-15T04:36:20;94231.09;;;-5.80
70415;BMP280;57837;52.064;113.478;2023-02-15T04:39:23;94235.66;;;-5.52
70415;BMP280;57837;52.064;113.478;2023-02-15T04:42:26;94222.88;;;-5.35
70415;BMP280;57837;52.064;113.478;2023-02-15T04:45:29;94217.47;;;-5.58
70415;BMP280;57837;52.064;113.478;2023-02-15T04:48:32;94221.69;;;-5.50
70415;BMP280;57837;52.064;113.478;2023-02-15T04:51:37;94210.97;;;-5.47
70415;BMP280;57837;52.064;113.478;2023-02-15T04:54:40;94206.91;;;-5.60
70415;BMP280;57837;52.064;113.478;2023-02-15T04:57:44;94205.28;;;-5.56
70415;BMP280;57837;52.064;113.478;2023-02-15T05:00:49;94199.88;;;-5.34
70415;BMP280;57837;52.064;113.478;2023-02-15T05:03:52;94194.84;;;-5.01
70415;BMP280;57837;52.064;113.478;2023-02-15T05:06:55;94191.91;;;-4.90
70415;BMP280;57837;52.064;113.478;2023-02-15T05:09:59;94178.41;;;-5.07
70415;BMP280;57837;52.064;113.478;2023-02-15T05:13:03;94185.00;;;-5.14
70415;BMP280;57837;52.064;113.478;2023-02-15T05:16:07;94177.44;;;-5.14
70415;BMP280;57837;52.064;113.478;2023-02-15T05:19:10;94162.97;;;-4.81
70415;BMP280;57837;52.064;113.478;2023-02-15T05:22:13;94160.91;;;-4.67
70415;BMP280;57837;52.064;113.478;2023-02-15T05:25:16;94155.84;;;-4.67
70415;BMP280;57837;52.064;113.478;2023-02-15T05:28:39;94148.78;;;-4.49
70415;BMP280;57837;52.064;113.478;2023-02-15T05:31:43;94156.75;;;-4.35
70415;BMP280;57837;52.064;113.478;2023-02-15T05:34:50;94148.22;;;-4.30
70415;BMP280;57837;52.064;113.478;2023-02-15T05:37:54;94146.66;;;-4.35
70415;BMP280;57837;52.064;113.478;2023-02-15T05:40:57;94135.69;;;-4.26
70415;BMP280;57837;52.064;113.478;2023-02-15T05:44:01;94127.72;;;-4.01
70415;BMP280;57837;52.064;113.478;2023-02-15T05:47:05;94127.63;;;-3.92
70415;BMP280;57837;52.064;113.478;2023-02-15T05:50:10;94121.09;;;-4.05
70415;BMP280;57837;52.064;113.478;2023-02-15T05:53:14;94117.72;;;-3.97
70415;BMP280;57837;52.064;113.478;2023-02-15T05:56:18;94110.47;;;-3.71
70415;BMP280;57837;52.064;113.478;2023-02-15T05:59:22;94103.59;;;-3.54
70415;BMP280;57837;52.064;113.478;2023-02-15T06:02:25;94105.16;;;-3.50
70415;BMP280;57837;52.064;113.478;2023-02-15T06:05:29;94098.94;;;-3.52
70415;BMP280;57837;52.064;113.478;2023-02-15T06:08:33;94094.56;;;-3.71
70415;BMP280;57837;52.064;113.478;2023-02-15T06:11:37;94101.06;;;-3.70
70415;BMP280;57837;52.064;113.478;2023-02-15T06:14:40;94090.63;;;-3.53
70415;BMP280;57837;52.064;113.478;2023-02-15T06:17:43;94083.16;;;-3.34
70415;BMP280;57837;52.064;113.478;2023-02-15T06:20:47;94093.09;;;-3.25
70415;BMP280;57837;52.064;113.478;2023-02-15T06:23:51;94086.16;;;-3.28
70415;BMP280;57837;52.064;113.478;2023-02-15T06:26:55;94082.97;;;-3.25
70415;BMP280;57837;52.064;113.478;2023-02-15T06:29:59;94089.28;;;-3.35
70415;BMP280;57837;52.064;113.478;2023-02-15T06:33:03;94081.69;;;-3.35
70415;BMP280;57837;52.064;113.478;2023-02-15T06:36:07;94078.00;;;-3.21
70415;BMP280;57837;52.064;113.478;2023-02-15T06:39:10;94087.78;;;-3.04
70415;BMP280;57837;52.064;113.478;2023-02-15T06:42:14;94081.78;;;-2.96
70415;BMP280;57837;52.064;113.478;2023-02-15T06:45:18;94076.28;;;-3.17
70415;BMP280;57837;52.064;113.478;2023-02-15T06:48:22;94075.22;;;-3.16
70415;BMP280;57837;52.064;113.478;2023-02-15T06:51:26;94078.41;;;-3.04
70415;BMP280;57837;52.064;113.478;2023-02-15T06:54:29;94075.63;;;-3.14
70415;BMP280;57837;52.064;113.478;2023-02-15T06:57:33;94071.56;;;-3.19
70415;BMP280;57837;52.064;113.478;2023-02-15T07:00:36;94068.69;;;-3.17
70415;BMP280;57837;52.064;113.478;2023-02-15T07:03:40;94062.25;;;-3.15
70415;BMP280;57837;52.064;113.478;2023-02-15T07:06:44;94055.00;;;-3.16
70415;BMP280;57837;52.064;113.478;2023-02-15T07:09:47;94049.44;;;-3.22
70415;BMP280;57837;52.064;113.478;2023-02-15T07:12:50;94052.06;;;-3.18
70415;BMP280;57837;52.064;113.478;2023-02-15T07:15:54;94039.16;;;-3.13
70415;BMP280;57837;52.064;113.478;2023-02-15T07:18:57;94043.53;;;-3.10
70415;BMP280;57837;52.064;113.478;2023-02-15T07:22:02;94034.63;;;-3.04
70415;BMP280;57837;52.064;113.478;2023-02-15T07:25:08;94042.03;;;-2.95
70415;BMP280;57837;52.064;113.478;2023-02-15T07:28:11;94039.50;;;-2.95
70415;BMP280;57837;52.064;113.478;2023-02-15T07:31:15;94026.81;;;-2.80
70415;BMP280;57837;52.064;113.478;2023-02-15T07:34:18;94029.59;;;-2.66
70415;BMP280;57837;52.064;113.478;2023-02-15T07:37:22;94025.44;;;-2.77
70415;BMP280;57837;52.064;113.478;2023-02-15T07:40:25;94026.09;;;-2.80
70415;BMP280;57837;52.064;113.478;2023-02-15T07:43:29;94033.13;;;-2.70
70415;BMP280;57837;52.064;113.478;2023-02-15T07:46:32;94035.25;;;-2.56
70415;BMP280;57837;52.064;113.478;2023-02-15T07:49:36;94028.84;;;-2.50
70415;BMP280;57837;52.064;113.478;2023-02-15T07:52:40;94016.09;;;-2.54
70415;BMP280;57837;52.064;113.478;2023-02-15T07:55:44;94019.78;;;-2.51
70415;BMP280;57837;52.064;113.478;2023-02-15T07:58:48;94020.78;;;-2.56
70415;BMP280;57837;52.064;113.478;2023-02-15T08:01:54;94019.91;;;-2.63
70415;BMP280;57837;52.064;113.478;2023-02-15T08:04:59;94019.25;;;-2.60
70415;BMP280;57837;52.064;113.478;2023-02-15T08:08:02;94018.84;;;-2.62
70415;BMP280;57837;52.064;113.478;2023-02-15T08:11:33;94022.56;;;-2.56
70415;BMP280;57837;52.064;113.478;2023-02-15T08:14:39;94008.44;;;-2.57
70415;BMP280;57837;52.064;113.478;2023-02-15T08:17:43;94014.38;;;-2.50
70415;BMP280;57837;52.064;113.478;2023-02-15T08:20:50;94010.16;;;-2.42
70415;BMP280;57837;52.064;113.478;2023-02-15T08:23:55;94011.06;;;-2.70
70415;BMP280;57837;52.064;113.478;2023-02-15T08:26:59;94010.09;;;-2.84
70415;BMP280;57837;52.064;113.478;2023-02-15T08:30:02;94014.28;;;-2.92
70415;BMP280;57837;52.064;113.478;2023-02-15T08:33:06;94022.84;;;-2.96
70415;BMP280;57837;52.064;113.478;2023-02-15T08:36:17;94010.72;;;-3.07
70415;BMP280;57837;52.064;113.478;2023-02-15T08:39:21;94012.78;;;-3.12
70415;BMP280;57837;52.064;113.478;2023-02-15T08:42:25;94002.31;;;-3.11
70415;BMP280;57837;52.064;113.478;2023-02-15T08:45:29;94007.25;;;-2.99
70415;BMP280;57837;52.064;113.478;2023-02-15T08:48:32;94006.19;;;-2.97
70415;BMP280;57837;52.064;113.478;2023-02-15T08:51:38;93995.31;;;-2.98
70415;BMP280;57837;52.064;113.478;2023-02-15T08:54:41;94000.13;;;-3.12
70415;BMP280;57837;52.064;113.478;2023-02-15T08:57:45;93997.13;;;-3.18
70415;BMP280;57837;52.064;113.478;2023-02-15T09:00:51;93996.38;;;-3.18
70415;BMP280;57837;52.064;113.478;2023-02-15T09:03:59;93990.59;;;-3.19
70415;BMP280;57837;52.064;113.478;2023-02-15T09:07:03;93993.34;;;-3.24
70415;BMP280;57837;52.064;113.478;2023-02-15T09:10:07;93992.94;;;-3.26
70415;BMP280;57837;52.064;113.478;2023-02-15T09:13:12;93985.75;;;-3.24
70415;BMP280;57837;52.064;113.478;2023-02-15T09:16:15;93989.00;;;-3.23
70415;BMP280;57837;52.064;113.478;2023-02-15T09:19:22;93993.25;;;-3.27
70415;BMP280;57837;52.064;113.478;2023-02-15T09:22:26;93990.53;;;-3.38
70415;BMP280;57837;52.064;113.478;2023-02-15T09:25:30;93996.00;;;-3.52
70415;BMP280;57837;52.064;113.478;2023-02-15T09:28:34;93985.25;;;-3.65
70415;BMP280;57837;52.064;113.478;2023-02-15T09:31:40;93985.72;;;-3.75
70415;BMP280;57837;52.064;113.478;2023-02-15T09:34:44;93996.03;;;-3.83
70415;BMP280;57837;52.064;113.478;2023-02-15T09:37:47;93998.59;;;-3.96
70415;BMP280;57837;52.064;113.478;2023-02-15T09:41:11;93993.69;;;-4.04
70415;BMP280;57837;52.064;113.478;2023-02-15T09:48:06;93997.22;;;-4.37
70415;BMP280;57837;52.064;113.478;2023-02-15T09:55:12;94006.00;;;-4.86
70415;BMP280;57837;52.064;113.478;2023-02-15T09:58:34;94004.34;;;-5.07
70415;BMP280;57837;52.064;113.478;2023-02-15T10:13:30;94009.97;;;-5.83
70415;BMP280;57837;52.064;113.478;2023-02-15T10:26:58;94004.28;;;-6.25
70415;BMP280;57837;52.064;113.478;2023-02-15T10:30:14;94006.97;;;-6.42
70415;BMP280;57837;52.064;113.478;2023-02-15T10:33:33;94014.56;;;-6.51
70415;BMP280;57837;52.064;113.478;2023-02-15T10:44:11;94013.63;;;-6.88
70415;BMP280;57837;52.064;113.478;2023-02-15T10:47:33;94010.72;;;-6.99
70415;BMP280;57837;52.064;113.478;2023-02-15T10:50:52;94022.72;;;-7.04
70415;BMP280;57837;52.064;113.478;2023-02-15T11:00:34;94032.22;;;-7.57
70415;BMP280;57837;52.064;113.478;2023-02-15T11:13:56;94022.97;;;-7.91
70415;BMP280;57837;52.064;113.478;2023-02-15T11:17:26;94020.22;;;-7.98
70415;BMP280;57837;52.064;113.478;2023-02-15T11:23:41;94019.59;;;-7.86
70415;BMP280;57837;52.064;113.478;2023-02-15T11:30:22;94017.09;;;-8.04
70415;BMP280;57837;52.064;113.478;2023-02-15T11:33:35;94020.53;;;-8.08
70415;BMP280;57837;52.064;113.478;2023-02-15T11:36:41;94025.41;;;-8.29
70415;BMP280;57837;52.064;113.478;2023-02-15T11:39:46;94022.41;;;-8.48
70415;BMP280;57837;52.064;113.478;2023-02-15T11:43:03;94021.69;;;-8.40
70415;BMP280;57837;52.064;113.478;2023-02-15T11:46:11;94023.19;;;-8.39
70415;BMP280;57837;52.064;113.478;2023-02-15T11:49:34;94014.91;;;-8.40
70415;BMP280;57837;52.064;113.478;2023-02-15T11:52:38;94027.31;;;-8.52
70415;BMP280;57837;52.064;113.478;2023-02-15T11:55:46;94019.50;;;-8.50
70415;BMP280;57837;52.064;113.478;2023-02-15T11:59:00;94020.66;;;-8.48
70415;BMP280;57837;52.064;113.478;2023-02-15T12:02:19;94018.16;;;-8.56
70415;BMP280;57837;52.064;113.478;2023-02-15T12:05:24;94021.34;;;-8.73
70415;BMP280;57837;52.064;113.478;2023-02-15T12:08:37;94012.50;;;-8.88
70415;BMP280;57837;52.064;113.478;2023-02-15T12:11:41;94013.44;;;-9.15
70415;BMP280;57837;52.064;113.478;2023-02-15T12:14:50;94016.78;;;-9.28
70415;BMP280;57837;52.064;113.478;2023-02-15T12:17:54;94005.66;;;-9.44
70415;BMP280;57837;52.064;113.478;2023-02-15T12:21:05;94010.09;;;-9.41
70415;BMP280;57837;52.064;113.478;2023-02-15T12:24:44;94016.56;;;-9.40
70415;BMP280;57837;52.064;113.478;2023-02-15T12:27:48;94015.03;;;-9.59
70415;BMP280;57837;52.064;113.478;2023-02-15T12:30:53;94016.78;;;-9.59
70415;BMP280;57837;52.064;113.478;2023-02-15T12:34:01;94019.75;;;-9.57
70415;BMP280;57837;52.064;113.478;2023-02-15T12:37:27;94013.19;;;-9.75
70415;BMP280;57837;52.064;113.478;2023-02-15T12:40:34;94017.28;;;-10.02
70415;BMP280;57837;52.064;113.478;2023-02-15T12:43:38;94027.09;;;-10.05
70415;BMP280;57837;52.064;113.478;2023-02-15T12:46:41;94023.97;;;-10.11
70415;BMP280;57837;52.064;113.478;2023-02-15T12:50:14;94022.66;;;-10.08
70415;BMP280;57837;52.064;113.478;2023-02-15T12:53:33;94025.91;;;-10.08
70415;BMP280;57837;52.064;113.478;2023-02-15T12:56:38;94016.59;;;-10.16
70415;BMP280;57837;52.064;113.478;2023-02-15T12:59:48;94028.00;;;-10.24
70415;BMP280;57837;52.064;113.478;2023-02-15T13:02:58;94030.66;;;-10.20
70415;BMP280;57837;52.064;113.478;2023-02-15T13:06:05;94034.03;;;-10.25
70415;BMP280;57837;52.064;113.478;2023-02-15T13:12:29;94026.63;;;-10.30
70415;BMP280;57837;52.064;113.478;2023-02-15T13:15:42;94027.59;;;-10.53
70415;BMP280;57837;52.064;113.478;2023-02-15T13:18:51;94033.22;;;-10.61
70415;BMP280;57837;52.064;113.478;2023-02-15T13:21:55;94029.91;;;-10.57
70415;BMP280;57837;52.064;113.478;2023-02-15T13:25:09;94029.53;;;-10.50
70415;BMP280;57837;52.064;113.478;2023-02-15T13:28:16;94035.38;;;-10.55
70415;BMP280;57837;52.064;113.478;2023-02-15T13:31:24;94037.69;;;-10.58
70415;BMP280;57837;52.064;113.478;2023-02-15T13:34:35;94041.25;;;-10.73
70415;BMP280;57837;52.064;113.478;2023-02-15T13:38:01;94044.56;;;-10.78
70415;BMP280;57837;52.064;113.478;2023-02-15T13:41:32;94041.59;;;-10.80
70415;BMP280;57837;52.064;113.478;2023-02-15T13:45:32;94038.34;;;-10.94
70415;BMP280;57837;52.064;113.478;2023-02-15T13:52:20;94043.81;;;-11.06
70415;BMP280;57837;52.064;113.478;2023-02-15T14:10:10;94029.28;;;-11.31
70415;BMP280;57837;52.064;113.478;2023-02-15T14:19:52;94033.47;;;-11.59
70415;BMP280;57837;52.064;113.478;2023-02-15T14:23:30;94028.06;;;-11.66
70415;BMP280;57837;52.064;113.478;2023-02-15T14:29:55;94029.91;;;-11.72
70415;BMP280;57837;52.064;113.478;2023-02-15T14:33:13;94028.22;;;-11.76
70415;BMP280;57837;52.064;113.478;2023-02-15T14:36:19;94012.41;;;-12.04
70415;BMP280;57837;52.064;113.478;2023-02-15T14:43:06;94014.06;;;-12.13
70415;BMP280;57837;52.064;113.478;2023-02-15T14:46:45;94011.59;;;-12.00
70415;BMP280;57837;52.064;113.478;2023-02-15T14:49:49;94012.97;;;-12.07
70415;BMP280;57837;52.064;113.478;2023-02-15T14:53:22;94008.81;;;-12.12
70415;BMP280;57837;52.064;113.478;2023-02-15T14:56:26;94014.91;;;-12.23
70415;BMP280;57837;52.064;113.478;2023-02-15T15:02:51;94007.44;;;-12.04
70415;BMP280;57837;52.064;113.478;2023-02-15T15:05:56;94005.69;;;-12.04
70415;BMP280;57837;52.064;113.478;2023-02-15T15:09:22;94006.22;;;-11.88
70415;BMP280;57837;52.064;113.478;2023-02-15T15:15:45;94005.91;;;-11.68
70415;BMP280;57837;52.064;113.478;2023-02-15T15:18:49;94006.25;;;-11.74
70415;BMP280;57837;52.064;113.478;2023-02-15T15:21:53;94001.72;;;-11.72
70415;BMP280;57837;52.064;113.478;2023-02-15T15:25:08;94005.09;;;-11.49
70415;BMP280;57837;52.064;113.478;2023-02-15T15:31:46;94013.69;;;-11.88
70415;BMP280;57837;52.064;113.478;2023-02-15T15:38:21;94017.22;;;-12.08
70415;BMP280;57837;52.064;113.478;2023-02-15T15:45:39;94023.03;;;-12.12
70415;BMP280;57837;52.064;113.478;2023-02-15T15:48:45;94025.44;;;-12.07
70415;BMP280;57837;52.064;113.478;2023-02-15T15:51:50;94023.22;;;-12.09
70415;BMP280;57837;52.064;113.478;2023-02-15T15:55:03;94020.06;;;-12.33
70415;BMP280;57837;52.064;113.478;2023-02-15T15:58:08;94012.75;;;-12.30
70415;BMP280;57837;52.064;113.478;2023-02-15T16:01:26;94013.25;;;-12.28
70415;BMP280;57837;52.064;113.478;2023-02-15T16:04:32;94011.94;;;-12.44
70415;BMP280;57837;52.064;113.478;2023-02-15T16:07:36;94008.41;;;-12.38
70415;BMP280;57837;52.064;113.478;2023-02-15T16:10:42;94000.91;;;-12.38
70415;BMP280;57837;52.064;113.478;2023-02-15T16:13:47;93998.75;;;-12.26
70415;BMP280;57837;52.064;113.478;2023-02-15T16:16:54;93995.19;;;-12.20
70415;BMP280;57837;52.064;113.478;2023-02-15T16:20:03;93989.38;;;-12.15
70415;BMP280;57837;52.064;113.478;2023-02-15T16:29:53;93979.34;;;-11.77
70415;BMP280;57837;52.064;113.478;2023-02-15T16:33:11;93976.31;;;-11.74
70415;BMP280;57837;52.064;113.478;2023-02-15T16:36:27;93971.88;;;-11.77
70415;BMP280;57837;52.064;113.478;2023-02-15T16:39:32;93981.84;;;-11.77
70415;BMP280;57837;52.064;113.478;2023-02-15T16:42:44;93990.25;;;-11.73
70415;BMP280;57837;52.064;113.478;2023-02-15T16:45:47;93991.66;;;-11.67
70415;BMP280;57837;52.064;113.478;2023-02-15T16:48:52;93986.56;;;-11.76
70415;BMP280;57837;52.064;113.478;2023-02-15T16:52:03;93981.22;;;-11.83
70415;BMP280;57837;52.064;113.478;2023-02-15T16:55:23;93981.47;;;-11.84
70415;BMP280;57837;52.064;113.478;2023-02-15T16:58:35;93991.47;;;-11.84
70415;BMP280;57837;52.064;113.478;2023-02-15T17:01:43;93981.66;;;-11.81
70415;BMP280;57837;52.064;113.478;2023-02-15T17:05:20;93982.56;;;-11.91
70415;BMP280;57837;52.064;113.478;2023-02-15T17:11:41;93981.16;;;-11.97
70415;BMP280;57837;52.064;113.478;2023-02-15T17:14:44;93972.63;;;-12.09
70415;BMP280;57837;52.064;113.478;2023-02-15T17:17:48;93981.09;;;-12.29
70415;BMP280;57837;52.064;113.478;2023-02-15T17:20:53;93978.06;;;-12.45
70415;BMP280;57837;52.064;113.478;2023-02-15T17:23:59;93976.88;;;-12.48
70415;BMP280;57837;52.064;113.478;2023-02-15T17:27:10;93976.69;;;-12.56
70415;BMP280;57837;52.064;113.478;2023-02-15T17:30:21;93976.19;;;-12.53
70415;BMP280;57837;52.064;113.478;2023-02-15T17:33:36;93982.47;;;-12.56
70415;BMP280;57837;52.064;113.478;2023-02-15T17:36:57;93985.03;;;-12.61
70415;BMP280;57837;52.064;113.478;2023-02-15T17:40:16;93981.69;;;-12.56
70415;BMP280;57837;52.064;113.478;2023-02-15T17:43:19;93985.84;;;-12.70
70415;BMP280;57837;52.064;113.478;2023-02-15T17:46:23;93980.25;;;-12.81
70415;BMP280;57837;52.064;113.478;2023-02-15T17:49:27;93965.84;;;-12.84
70415;BMP280;57837;52.064;113.478;2023-02-15T17:52:37;93975.66;;;-12.93
70415;BMP280;57837;52.064;113.478;2023-02-15T17:55:41;93972.09;;;-13.11
70415;BMP280;57837;52.064;113.478;2023-02-15T17:58:46;93971.38;;;-13.11
70415;BMP280;57837;52.064;113.478;2023-02-15T18:01:50;93974.69;;;-13.16
70415;BMP280;57837;52.064;113.478;2023-02-15T18:05:14;93973.78;;;-13.01
70415;BMP280;57837;52.064;113.478;2023-02-15T18:08:37;93980.00;;;-13.04
70415;BMP280;57837;52.064;113.478;2023-02-15T18:11:58;93974.19;;;-12.94
70415;BMP280;57837;52.064;113.478;2023-02-15T18:15:01;93972.53;;;-13.04
70415;BMP280;57837;52.064;113.478;2023-02-15T18:18:08;93970.59;;;-13.07
70415;BMP280;57837;52.064;113.478;2023-02-15T18:21:14;93972.44;;;-13.17
70415;BMP280;57837;52.064;113.478;2023-02-15T18:24:23;93975.19;;;-13.19
70415;BMP280;57837;52.064;113.478;2023-02-15T18:27:26;93969.63;;;-13.11
70415;BMP280;57837;52.064;113.478;2023-02-15T18:30:30;93973.72;;;-13.20
70415;BMP280;57837;52.064;113.478;2023-02-15T18:33:36;93967.00;;;-13.19
70415;BMP280;57837;52.064;113.478;2023-02-15T18:36:43;93968.28;;;-13.22
70415;BMP280;57837;52.064;113.478;2023-02-15T18:39:48;93963.50;;;-13.18
70415;BMP280;57837;52.064;113.478;2023-02-15T18:42:52;93967.47;;;-13.17
70415;BMP280;57837;52.064;113.478;2023-02-15T18:45:55;93960.53;;;-13.20
70415;BMP280;57837;52.064;113.478;2023-02-15T18:48:58;93969.00;;;-13.21
70415;BMP280;57837;52.064;113.478;2023-02-15T18:52:02;93967.88;;;-13.34
70415;BMP280;57837;52.064;113.478;2023-02-15T18:55:19;93967.78;;;-13.48
70415;BMP280;57837;52.064;113.478;2023-02-15T18:58:22;93965.63;;;-13.60
70415;BMP280;57837;52.064;113.478;2023-02-15T19:01:27;93971.78;;;-13.81
70415;BMP280;57837;52.064;113.478;2023-02-15T19:04:31;93967.97;;;-14.07
70415;BMP280;57837;52.064;113.478;2023-02-15T19:07:35;93976.84;;;-14.30
70415;BMP280;57837;52.064;113.478;2023-02-15T19:10:39;93974.38;;;-14.40
70415;BMP280;57837;52.064;113.478;2023-02-15T19:13:43;93980.13;;;-14.50
70415;BMP280;57837;52.064;113.478;2023-02-15T19:16:46;93975.03;;;-14.25
70415;BMP280;57837;52.064;113.478;2023-02-15T19:19:50;93972.81;;;-14.26
70415;BMP280;57837;52.064;113.478;2023-02-15T19:22:54;93970.13;;;-14.30
70415;BMP280;57837;52.064;113.478;2023-02-15T19:25:59;93982.28;;;-14.28
70415;BMP280;57837;52.064;113.478;2023-02-15T19:29:04;93978.34;;;-14.39
70415;BMP280;57837;52.064;113.478;2023-02-15T19:32:09;93969.19;;;-14.49
70415;BMP280;57837;52.064;113.478;2023-02-15T19:35:19;93977.88;;;-14.47
70415;BMP280;57837;52.064;113.478;2023-02-15T19:38:30;93974.66;;;-14.42
70415;BMP280;57837;52.064;113.478;2023-02-15T19:41:37;93970.41;;;-14.36
70415;BMP280;57837;52.064;113.478;2023-02-15T19:44:41;93969.44;;;-14.46
70415;BMP280;57837;52.064;113.478;2023-02-15T19:47:45;93969.34;;;-14.25
70415;BMP280;57837;52.064;113.478;2023-02-15T19:50:50;93967.53;;;-14.20